Time;durP1;ratioP1;P1;durP2;ratioP2;P2;SDS_P1;SDS_P2;PMS_P1;PMS_P2;Temp;Humidity;BMP_temperature;BMP_pressure;BME280_temperature;BME280_humidity;BME280_pressure;Samples;Min_cycle;Max_cycle;Signal;HPM_P1;HPM_P2
2022/11/10 00:02:00;;;;;;;12.98;2.78;;;;;;;15.01;68.40;100657.00;4946689;28;120973;-71
2022/11/10 00:04:44;;;;;;;14.23;2.70;;;;;;;14.98;68.10;100669.75;4945629;28;120118;-71
2022/11/10 00:07:28;;;;;;;17.57;2.60;;;;;;;14.96;67.86;100669.50;4931734;28;119942;-70
2022/11/10 00:10:14;;;;;;;16.27;2.83;;;;;;;14.94;67.96;100674.72;4942718;28;119916;-71
2022/11/10 00:13:02;;;;;;;17.27;2.95;;;;;;;14.93;68.66;100683.50;4944680;28;119559;-71
2022/11/10 00:18:56;;;;;;;14.77;2.93;;;;;;;14.86;68.62;100690.16;4926482;28;119454;-71
2022/11/10 00:21:41;;;;;;;16.08;3.13;;;;;;;14.83;68.63;100690.38;4936985;28;119634;-71
2022/11/10 00:24:26;;;;;;;19.33;3.47;;;;;;;14.85;68.96;100696.16;4948952;28;119807;-70
2022/11/10 00:27:11;;;;;;;17.63;3.50;;;;;;;14.84;68.79;100692.66;4941547;28;119619;-71
2022/11/10 00:29:55;;;;;;;19.83;3.13;;;;;;;14.83;68.99;100707.69;4936635;28;120235;-71
2022/11/10 00:32:40;;;;;;;19.10;3.47;;;;;;;14.82;68.95;100705.41;4940527;28;119769;-71
2022/11/10 00:35:25;;;;;;;18.90;3.40;;;;;;;14.78;68.41;100711.13;4932959;28;119436;-71
2022/11/10 00:38:09;;;;;;;17.50;3.30;;;;;;;14.74;68.60;100713.34;4931208;28;120291;-71
2022/11/10 00:40:53;;;;;;;22.35;3.70;;;;;;;14.69;68.23;100720.28;4929945;28;119949;-70
2022/11/10 00:43:37;;;;;;;18.30;3.10;;;;;;;14.67;68.52;100727.53;4942325;28;119630;-71
2022/11/10 00:46:22;;;;;;;20.73;3.70;;;;;;;14.63;68.54;100719.41;4943414;28;119653;-71
2022/11/10 00:49:06;;;;;;;22.98;3.83;;;;;;;14.59;68.61;100727.13;4948206;28;119883;-71
2022/11/10 00:51:51;;;;;;;19.50;4.00;;;;;;;14.53;68.12;100723.53;4926056;28;120451;-71
2022/11/10 00:54:35;;;;;;;23.20;4.32;;;;;;;14.51;68.49;100726.00;4939783;28;120226;-70
2022/11/10 00:57:19;;;;;;;21.00;3.77;;;;;;;14.47;68.60;100736.47;4943625;28;119839;-71
2022/11/10 01:00:04;;;;;;;25.35;4.15;;;;;;;14.46;68.72;100734.19;4944863;28;119854;-71
2022/11/10 01:02:48;;;;;;;25.65;4.30;;;;;;;14.42;68.53;100740.63;4942716;28;120475;-70
2022/11/10 01:05:37;;;;;;;22.45;4.10;;;;;;;14.42;68.85;100751.66;4943878;28;120647;-70
2022/11/10 01:08:23;;;;;;;23.65;4.25;;;;;;;14.39;68.50;100749.09;4925293;28;119540;-71
2022/11/10 01:11:15;;;;;;;26.87;4.30;;;;;;;14.37;68.25;100760.59;4935218;28;119759;-71
2022/11/10 01:13:59;;;;;;;23.33;4.00;;;;;;;14.35;68.66;100765.84;4948837;28;120272;-71
2022/11/10 01:16:43;;;;;;;22.13;4.30;;;;;;;14.32;68.29;100775.06;4941737;28;120381;-71
2022/11/10 01:19:28;;;;;;;21.93;4.13;;;;;;;14.29;68.83;100775.25;4939879;28;119993;-71
2022/11/10 01:22:16;;;;;;;23.55;4.72;;;;;;;14.30;69.11;100765.75;4944793;28;119454;-71
2022/11/10 01:25:00;;;;;;;24.55;4.50;;;;;;;14.30;69.53;100779.53;4945558;28;120140;-70
2022/11/10 01:27:44;;;;;;;25.17;4.83;;;;;;;14.34;69.77;100774.59;4945886;28;119651;-71
2022/11/10 01:30:29;;;;;;;24.48;4.82;;;;;;;14.38;70.05;100789.72;4945820;28;119866;-71
2022/11/10 01:33:13;;;;;;;31.80;5.07;;;;;;;14.39;70.07;100788.47;4951404;28;119662;-69
2022/11/10 01:35:57;;;;;;;24.27;4.60;;;;;;;14.44;70.12;100789.88;4927916;28;120291;-70
2022/11/10 01:38:42;;;;;;;30.02;5.70;;;;;;;14.49;70.04;100799.47;4942051;28;119717;-70
2022/11/10 01:41:26;;;;;;;32.13;5.37;;;;;;;14.53;70.12;100806.34;4944967;28;119363;-71
2022/11/10 01:44:20;;;;;;;29.23;4.95;;;;;;;14.57;69.69;100815.19;4947995;28;119315;-71
2022/11/10 01:47:05;;;;;;;26.40;4.90;;;;;;;14.57;69.25;100809.66;4945697;28;120034;-70
2022/11/10 01:49:49;;;;;;;23.58;4.78;;;;;;;14.58;69.41;100802.91;4945210;28;119583;-71
2022/11/10 01:52:33;;;;;;;24.98;4.70;;;;;;;14.55;68.87;100803.84;4943850;28;119368;-71
2022/11/10 01:55:17;;;;;;;22.15;4.22;;;;;;;14.58;69.28;100810.44;4942464;28;120071;-71
2022/11/10 01:58:03;;;;;;;20.20;3.70;;;;;;;14.57;69.05;100817.19;4942999;28;119773;-71
2022/11/10 02:00:48;;;;;;;20.13;3.80;;;;;;;14.52;68.48;100815.09;4947102;28;120314;-71
2022/11/10 02:03:42;;;;;;;20.63;3.47;;;;;;;14.39;67.92;100807.78;4949825;28;120078;-71
2022/11/10 02:06:30;;;;;;;21.83;3.65;;;;;;;14.46;67.66;100825.28;4945542;28;119758;-70
2022/11/10 02:09:15;;;;;;;18.17;3.60;;;;;;;14.41;67.73;100832.16;4933521;28;120133;-71
2022/11/10 02:12:00;;;;;;;20.35;3.50;;;;;;;14.36;67.60;100828.06;4946818;28;119940;-71
2022/11/10 02:14:44;;;;;;;23.73;3.65;;;;;;;14.32;67.92;100829.47;4945527;28;118704;-71
2022/11/10 02:17:29;;;;;;;19.52;3.63;;;;;;;14.28;67.85;100834.44;4924834;28;120273;-71
2022/11/10 02:20:16;;;;;;;21.00;3.47;;;;;;;14.25;68.35;100833.38;4950187;28;120172;-71
2022/11/10 02:23:33;;;;;;;18.50;3.28;;;;;;;14.21;68.04;100841.09;4947403;28;119627;-71
2022/11/10 02:26:28;;;;;;;18.67;3.30;;;;;;;14.16;67.61;100841.72;4900358;28;120441;-71
2022/11/10 02:29:14;;;;;;;23.63;3.33;;;;;;;14.12;68.05;100849.41;4947944;28;119490;-71
2022/11/10 02:31:58;;;;;;;15.88;2.80;;;;;;;14.08;67.34;100851.59;4944256;28;119350;-71
2022/11/10 02:34:42;;;;;;;17.52;3.08;;;;;;;14.04;67.80;100851.75;4946735;28;119631;-71
2022/11/10 02:37:27;;;;;;;19.30;3.67;;;;;;;14.02;67.71;100845.94;4945766;28;120310;-71
2022/11/10 02:40:11;;;;;;;16.95;3.35;;;;;;;13.98;67.90;100853.66;4946508;28;120179;-70
2022/11/10 02:42:55;;;;;;;15.98;3.10;;;;;;;13.94;67.54;100855.78;4947307;28;119838;-71
2022/11/10 02:45:46;;;;;;;17.20;3.20;;;;;;;13.88;68.19;100856.91;4945236;28;120041;-71
2022/11/10 02:48:30;;;;;;;17.70;3.43;;;;;;;13.87;68.33;100863.66;4944407;28;120781;-71
2022/11/10 02:51:14;;;;;;;15.63;3.22;;;;;;;13.85;68.02;100866.88;4950127;28;120341;-70
2022/11/10 02:53:59;;;;;;;19.95;3.10;;;;;;;13.83;67.57;100859.09;4940465;28;119495;-71
2022/11/10 02:56:43;;;;;;;14.63;2.97;;;;;;;13.81;68.07;100858.78;4946011;28;120279;-71
2022/11/10 02:59:27;;;;;;;17.55;3.03;;;;;;;13.81;68.83;100874.56;4945580;28;119944;-71
2022/11/10 03:02:12;;;;;;;18.15;3.20;;;;;;;13.84;68.55;100884.66;4943066;28;119463;-70
2022/11/10 03:04:56;;;;;;;20.70;3.10;;;;;;;13.84;68.09;100884.66;4943309;28;119908;-71
2022/11/10 03:07:41;;;;;;;16.48;3.30;;;;;;;13.83;67.90;100889.41;4944262;28;120025;-70
2022/11/10 03:10:26;;;;;;;17.07;3.30;;;;;;;13.80;67.94;100884.84;4944307;28;120138;-71
2022/11/10 03:13:10;;;;;;;14.95;3.08;;;;;;;13.74;67.77;100885.94;4944976;28;119921;-71
2022/11/10 03:15:54;;;;;;;18.27;3.50;;;;;;;13.67;68.55;100887.03;4947583;28;120426;-71
2022/11/10 03:18:39;;;;;;;17.40;3.27;;;;;;;13.66;68.71;100884.75;4943425;28;120537;-71
2022/11/10 03:21:23;;;;;;;14.20;3.05;;;;;;;13.69;68.65;100883.81;4937024;28;119905;-70
2022/11/10 03:24:07;;;;;;;13.52;2.90;;;;;;;13.73;68.77;100884.44;4942252;28;120059;-71
2022/11/10 03:26:55;;;;;;;19.95;3.30;;;;;;;13.76;68.59;100898.03;4942912;28;119710;-71
2022/11/10 03:29:39;;;;;;;14.90;2.73;;;;;;;13.82;68.75;100909.19;4944203;28;119604;-71
2022/11/10 03:32:23;;;;;;;14.95;3.13;;;;;;;13.85;68.93;100908.25;4943444;28;120218;-71
2022/11/10 03:35:08;;;;;;;15.65;2.85;;;;;;;13.85;68.55;100927.56;4945609;28;119588;-71
2022/11/10 03:37:52;;;;;;;12.77;2.60;;;;;;;13.80;67.92;100922.69;4945181;28;119550;-71
2022/11/10 03:40:36;;;;;;;17.38;3.10;;;;;;;13.80;68.41;100939.22;4940025;28;120435;-71
2022/11/10 03:43:24;;;;;;;14.83;3.23;;;;;;;13.76;67.77;100927.59;4940551;28;120166;-71
2022/11/10 03:46:08;;;;;;;15.53;3.17;;;;;;;13.74;67.91;100930.06;4945550;28;120068;-71
2022/11/10 03:48:52;;;;;;;16.77;3.40;;;;;;;13.69;67.94;100927.91;4941499;28;119910;-71
2022/11/10 03:51:37;;;;;;;15.07;3.65;;;;;;;13.68;68.04;100942.94;4945181;28;119852;-71
2022/11/10 03:54:22;;;;;;;19.23;3.63;;;;;;;13.66;68.50;100942.63;4942807;28;120480;-71
2022/11/10 03:57:07;;;;;;;19.42;3.67;;;;;;;13.65;68.70;100938.34;4942637;28;119696;-71
2022/11/10 03:59:51;;;;;;;17.92;3.42;;;;;;;13.62;68.62;100931.00;4944306;28;119459;-70
2022/11/10 04:02:36;;;;;;;16.58;3.90;;;;;;;13.67;69.09;100939.41;4941818;28;120010;-71
2022/11/10 04:17:48;;;;;;;11.03;2.83;;;;;;;13.67;69.12;100949.66;4942198;28;119957;-70
2022/11/10 04:20:33;;;;;;;12.35;2.92;;;;;;;13.69;68.96;100961.75;4944489;28;119953;-71
2022/11/10 04:23:26;;;;;;;12.07;2.65;;;;;;;13.74;69.40;100972.19;4938757;28;119734;-70
2022/11/10 04:26:28;;;;;;;13.68;3.72;;;;;;;13.83;69.54;100968.63;4942900;28;121066;-71
2022/11/10 04:29:12;;;;;;;11.93;3.00;;;;;;;13.87;69.42;100968.44;4944620;28;120083;-71
2022/11/10 04:31:57;;;;;;;13.20;3.08;;;;;;;13.92;68.03;100979.59;4947274;28;119755;-70
2022/11/10 04:34:41;;;;;;;13.77;3.00;;;;;;;13.88;67.94;100976.25;4932814;28;120130;-71
2022/11/10 04:37:25;;;;;;;12.48;3.10;;;;;;;13.88;68.25;100979.00;4939626;28;119716;-71
2022/11/10 04:40:10;;;;;;;14.95;3.70;;;;;;;13.90;69.43;100987.56;4942586;28;120479;-71
2022/11/10 04:42:54;;;;;;;13.15;3.45;;;;;;;13.94;69.48;100990.91;4942256;28;119901;-70
2022/11/10 04:46:21;;;;;;;17.75;4.05;;;;;;;13.98;69.57;100996.28;4903420;28;120261;-71
2022/11/10 04:49:06;;;;;;;17.63;3.80;;;;;;;14.02;68.95;100988.59;4896248;28;119904;-70
2022/11/10 04:51:50;;;;;;;21.75;4.28;;;;;;;14.04;68.92;100991.66;4897674;28;119922;-70
2022/11/10 04:54:36;;;;;;;20.93;4.33;;;;;;;14.01;68.88;100984.31;4895871;28;120611;-71
2022/11/10 04:57:20;;;;;;;19.67;4.55;;;;;;;14.02;68.96;100989.38;4897236;28;119824;-70
2022/11/10 05:00:09;;;;;;;22.50;5.05;;;;;;;14.00;69.10;100996.59;4894684;28;120367;-70
2022/11/10 05:02:53;;;;;;;23.08;4.63;;;;;;;14.05;69.25;100998.72;4888182;28;120307;-71
2022/11/10 05:05:38;;;;;;;24.73;4.70;;;;;;;14.04;69.34;101006.22;4902501;28;120250;-71
2022/11/10 05:08:22;;;;;;;25.88;5.10;;;;;;;14.07;69.56;101002.53;4890817;28;120180;-71
2022/11/10 05:11:07;;;;;;;27.17;5.10;;;;;;;14.10;69.73;101004.34;4891073;28;119951;-70
2022/11/10 05:13:52;;;;;;;27.73;4.57;;;;;;;14.14;70.24;101015.22;4895903;28;120058;-71
2022/11/10 05:16:36;;;;;;;24.02;5.20;;;;;;;14.17;70.09;101010.75;4905545;28;119979;-71
2022/11/10 05:19:21;;;;;;;24.13;5.28;;;;;;;14.19;70.17;101014.56;4946757;28;120634;-71
2022/11/10 05:22:14;;;;;;;31.60;5.38;;;;;;;14.28;70.91;101019.28;4939183;28;119760;-71
2022/11/10 05:24:58;;;;;;;26.80;5.22;;;;;;;14.33;70.76;101024.16;4942912;28;119701;-71
2022/11/10 05:27:43;;;;;;;34.33;5.40;;;;;;;14.43;70.65;101025.66;4935297;28;119886;-71
2022/11/10 05:30:32;;;;;;;24.60;4.83;;;;;;;14.50;70.86;101032.84;4941263;28;120489;-70
2022/11/10 05:33:16;;;;;;;27.50;5.00;;;;;;;14.57;71.12;101029.75;4931673;28;119861;-71
2022/11/10 05:36:03;;;;;;;27.75;4.93;;;;;;;14.62;70.60;101034.59;4937485;28;120051;-70
2022/11/10 05:38:47;;;;;;;24.38;4.55;;;;;;;14.66;70.81;101035.97;4943319;28;120083;-70
2022/11/10 05:41:32;;;;;;;22.93;4.50;;;;;;;14.71;70.57;101043.63;4941811;28;119987;-70
2022/11/10 05:44:16;;;;;;;25.70;4.25;;;;;;;14.75;70.00;101057.25;4945919;28;119866;-70
2022/11/10 05:47:00;;;;;;;21.17;3.83;;;;;;;14.78;70.15;101056.28;4942386;28;120799;-73
2022/11/10 05:49:44;;;;;;;20.20;3.75;;;;;;;14.78;69.96;101056.28;4939833;28;121491;-73
2022/11/10 05:52:28;;;;;;;21.83;3.72;;;;;;;14.82;70.28;101059.66;4935262;28;119701;-74
2022/11/10 05:55:13;;;;;;;20.63;4.00;;;;;;;14.86;70.23;101070.50;4942284;28;120507;-74
2022/11/10 05:57:58;;;;;;;24.20;4.20;;;;;;;14.92;70.05;101074.16;4940523;28;120008;-74
2022/11/10 06:00:42;;;;;;;19.98;3.97;;;;;;;14.97;69.81;101070.75;4939383;28;120022;-73
2022/11/10 06:03:26;;;;;;;21.77;4.10;;;;;;;14.98;69.89;101077.81;4941778;28;119953;-73
2022/11/10 06:06:11;;;;;;;22.67;4.13;;;;;;;15.01;69.87;101082.38;4939910;28;119905;-73
2022/11/10 06:08:55;;;;;;;23.42;4.78;;;;;;;15.08;70.40;101082.03;4948092;28;120014;-73
2022/11/10 06:11:39;;;;;;;21.63;4.30;;;;;;;15.12;69.87;101085.38;4940059;28;119936;-74
2022/11/10 06:14:24;;;;;;;25.87;5.33;;;;;;;15.15;69.82;101092.72;4944945;28;119959;-74
2022/11/10 06:17:08;;;;;;;23.92;5.78;;;;;;;15.17;69.84;101106.84;4944186;28;119913;-73
2022/11/10 06:19:53;;;;;;;28.02;5.53;;;;;;;15.21;70.02;101112.94;4943321;28;120362;-74
2022/11/10 06:22:37;;;;;;;29.40;5.75;;;;;;;15.23;70.68;101112.47;4944515;28;119961;-74
2022/11/10 06:25:21;;;;;;;29.83;5.93;;;;;;;15.26;70.32;101117.81;4945837;28;119944;-74
2022/11/10 06:28:07;;;;;;;30.17;6.28;;;;;;;15.03;70.62;101091.72;4946490;28;119795;-74
2022/11/10 06:30:51;;;;;;;32.03;6.40;;;;;;;15.31;70.36;101133.75;4946397;28;119428;-74
2022/11/10 06:33:36;;;;;;;28.85;5.97;;;;;;;15.34;70.31;101135.56;4949100;28;119898;-74
2022/11/10 06:36:21;;;;;;;26.75;6.45;;;;;;;15.42;70.28;101143.50;4944922;28;120148;-73
2022/11/10 06:39:05;;;;;;;28.98;6.80;;;;;;;15.45;70.00;101140.56;4945238;28;119985;-74
2022/11/10 06:41:50;;;;;;;29.13;6.90;;;;;;;15.48;69.66;101141.59;4944708;28;120319;-74
2022/11/10 06:44:34;;;;;;;36.85;7.40;;;;;;;15.49;69.89;101154.19;4946898;28;120153;-74
2022/11/10 06:47:19;;;;;;;30.42;6.85;;;;;;;15.48;70.10;101147.13;4945579;28;120535;-73
2022/11/10 06:50:03;;;;;;;28.83;7.07;;;;;;;15.50;69.86;101158.47;4940300;28;119495;-74
2022/11/10 06:52:55;;;;;;;25.90;6.80;;;;;;;15.55;70.02;101160.59;4948251;28;119834;-74
2022/11/10 06:55:40;;;;;;;29.85;7.22;;;;;;;15.59;69.93;101161.19;4944430;28;120815;-73
2022/11/10 06:58:24;;;;;;;26.77;7.17;;;;;;;15.59;69.74;101170.25;4949639;28;119542;-73
2022/11/10 07:01:08;;;;;;;31.33;7.50;;;;;;;15.61;69.73;101178.88;4947470;28;119482;-73
2022/11/10 07:03:53;;;;;;;29.10;7.25;;;;;;;15.63;69.89;101176.41;4944235;28;119739;-73
2022/11/10 07:06:37;;;;;;;30.25;7.18;;;;;;;15.66;69.99;101171.91;4944527;28;119901;-74
2022/11/10 07:09:21;;;;;;;31.98;7.53;;;;;;;15.68;69.44;101185.25;4940258;28;119841;-74
2022/11/10 07:12:06;;;;;;;34.55;7.25;;;;;;;15.70;69.44;101196.63;4943626;28;120347;-74
2022/11/10 07:14:53;;;;;;;31.08;7.50;;;;;;;15.72;69.44;101199.66;4943657;28;120389;-73
2022/11/10 07:17:40;;;;;;;31.02;6.78;;;;;;;15.71;69.24;101184.31;4944469;28;120471;-73
2022/11/10 07:20:25;;;;;;;32.70;6.88;;;;;;;15.71;69.65;101196.13;4945083;28;120173;-74
2022/11/10 07:23:09;;;;;;;31.13;7.45;;;;;;;15.72;69.17;101210.72;4950028;28;119561;-73
2022/11/10 07:25:54;;;;;;;30.23;7.33;;;;;;;15.75;69.52;101220.84;4945840;28;120528;-74
2022/11/10 07:28:38;;;;;;;38.25;7.80;;;;;;;15.76;69.40;101227.91;4944465;28;120189;-73
2022/11/10 07:31:22;;;;;;;36.65;7.80;;;;;;;15.76;69.23;101228.66;4945698;28;122182;-73
2022/11/10 07:34:08;;;;;;;33.03;7.20;;;;;;;15.75;69.27;101238.22;4944315;28;119759;-74
2022/11/10 07:36:52;;;;;;;39.47;7.27;;;;;;;15.74;69.29;101242.22;4939606;28;120133;-74
2022/11/10 07:39:37;;;;;;;34.93;6.87;;;;;;;15.77;69.72;101241.25;4943634;28;120525;-74
2022/11/10 07:42:24;;;;;;;33.03;6.82;;;;;;;15.75;69.61;101227.13;4941122;28;119534;-74
2022/11/10 07:45:09;;;;;;;31.48;7.03;;;;;;;15.77;69.26;101232.97;4945687;28;120232;-73
2022/11/10 07:48:04;;;;;;;30.30;6.55;;;;;;;15.74;69.14;101225.63;4943826;28;120079;-74
2022/11/10 07:50:49;;;;;;;30.27;6.15;;;;;;;15.71;69.57;101225.78;4940733;28;120260;-73
2022/11/10 07:53:34;;;;;;;34.03;6.50;;;;;;;15.75;69.75;101216.06;4940280;28;120006;-73
2022/11/10 07:56:38;;;;;;;31.35;6.30;;;;;;;15.81;69.58;101211.41;4942731;28;120254;-74
2022/11/10 07:59:22;;;;;;;29.35;6.00;;;;;;;15.83;69.17;101228.28;4943677;28;119691;-73
2022/11/10 08:02:10;;;;;;;30.42;5.88;;;;;;;15.90;69.19;101243.78;4939818;28;120151;-73
2022/11/10 08:04:58;;;;;;;33.07;6.10;;;;;;;15.95;69.61;101257.72;4940973;28;119904;-73
2022/11/10 08:07:43;;;;;;;29.00;6.25;;;;;;;15.99;69.33;101248.47;4943729;28;120085;-73
2022/11/10 08:10:28;;;;;;;28.70;5.95;;;;;;;16.04;69.26;101253.34;4944413;28;119649;-74
2022/11/10 08:13:13;;;;;;;29.47;5.70;;;;;;;16.06;68.81;101257.16;4940942;28;119905;-74
2022/11/10 08:15:58;;;;;;;31.75;5.82;;;;;;;16.11;68.70;101259.28;4938351;28;120216;-73
2022/11/10 08:18:42;;;;;;;28.73;5.70;;;;;;;16.15;68.34;101265.41;4933534;28;120095;-73
2022/11/10 08:21:27;;;;;;;32.33;6.00;;;;;;;16.22;69.04;101258.72;4938830;28;120489;-73
2022/11/10 08:24:11;;;;;;;30.37;5.87;;;;;;;16.24;68.47;101253.47;4940969;28;122187;-73
2022/11/10 08:26:55;;;;;;;30.33;5.78;;;;;;;16.27;68.53;101256.06;4942454;28;120006;-74
2022/11/10 08:29:40;;;;;;;30.58;6.03;;;;;;;16.32;68.41;101253.84;4941239;28;119824;-74
2022/11/10 08:32:27;;;;;;;32.83;6.10;;;;;;;16.34;68.50;101260.47;4941789;28;119609;-73
2022/11/10 08:35:11;;;;;;;32.03;6.10;;;;;;;16.36;68.19;101269.06;4942664;28;120341;-73
2022/11/10 08:37:55;;;;;;;29.73;5.85;;;;;;;16.39;67.98;101279.19;4940478;28;120239;-73
2022/11/10 08:40:40;;;;;;;27.25;5.22;;;;;;;16.40;68.01;101280.72;4942584;28;120488;-74
2022/11/10 08:43:27;;;;;;;25.70;5.35;;;;;;;16.38;68.06;101274.13;4940602;28;120152;-73
2022/11/10 08:46:11;;;;;;;32.42;6.25;;;;;;;16.37;68.13;101278.88;4940971;28;120094;-73
2022/11/10 08:48:56;;;;;;;30.50;5.95;;;;;;;16.41;68.31;101273.16;4938737;28;121129;-74
2022/11/10 08:51:40;;;;;;;36.88;6.25;;;;;;;16.44;68.20;101278.50;4941503;28;120244;-74
2022/11/10 08:54:24;;;;;;;30.33;5.77;;;;;;;16.44;67.99;101281.28;4943029;28;120525;-74
2022/11/10 08:57:09;;;;;;;30.67;5.75;;;;;;;16.46;68.34;101298.19;4940376;28;119909;-73
2022/11/10 08:59:53;;;;;;;30.67;6.10;;;;;;;16.48;68.29;101297.69;4943040;28;119852;-74
2022/11/10 09:02:41;;;;;;;35.20;6.68;;;;;;;16.54;67.81;101290.25;4929672;28;120219;-74
2022/11/10 09:05:25;;;;;;;32.22;6.68;;;;;;;16.58;68.06;101293.63;4941071;28;119951;-73
2022/11/10 09:08:10;;;;;;;28.50;6.13;;;;;;;16.61;68.02;101286.34;4943037;28;120674;-74
2022/11/10 09:10:54;;;;;;;30.38;6.47;;;;;;;16.60;67.45;101288.34;4942595;28;120195;-74
2022/11/10 09:13:39;;;;;;;32.53;6.30;;;;;;;16.63;67.54;101287.41;4944815;28;120800;-73
2022/11/10 09:16:23;;;;;;;29.10;6.13;;;;;;;16.66;67.85;101285.69;4942271;28;120258;-73
2022/11/10 09:19:13;;;;;;;28.13;5.57;;;;;;;16.74;67.86;101281.31;4944338;28;120167;-73
2022/11/10 09:21:57;;;;;;;31.52;6.35;;;;;;;16.82;67.56;101282.47;4943151;28;120169;-73
2022/11/10 09:24:42;;;;;;;28.00;5.60;;;;;;;16.86;67.49;101285.78;4938465;28;120665;-73
2022/11/10 09:27:26;;;;;;;34.77;6.60;;;;;;;16.86;67.20;101299.66;4939180;28;119979;-74
2022/11/10 09:30:11;;;;;;;29.30;6.10;;;;;;;16.86;66.97;101300.41;4942042;28;119586;-73
2022/11/10 09:32:57;;;;;;;29.15;6.10;;;;;;;16.86;67.01;101316.28;4932549;28;119991;-73
2022/11/10 09:35:41;;;;;;;31.23;6.07;;;;;;;16.84;66.93;101324.31;4946217;28;120975;-73
2022/11/10 09:38:26;;;;;;;31.45;6.13;;;;;;;16.79;66.94;101331.25;4944616;28;119708;-74
2022/11/10 09:41:13;;;;;;;31.52;5.97;;;;;;;16.78;66.90;101335.25;4945953;28;119884;-74
2022/11/10 09:44:23;;;;;;;30.73;6.27;;;;;;;16.77;66.91;101346.81;4948592;28;120040;-74
2022/11/10 09:47:22;;;;;;;31.70;6.10;;;;;;;16.76;67.28;101346.06;4946271;28;119571;-74
2022/11/10 09:50:13;;;;;;;30.50;6.30;;;;;;;16.79;67.25;101349.88;4950924;28;120259;-73
2022/11/10 09:52:59;;;;;;;28.53;6.57;;;;;;;16.80;66.77;101357.75;4943145;28;120661;-74
2022/11/10 09:56:01;;;;;;;29.48;5.97;;;;;;;16.85;67.38;101370.94;4944589;28;119922;-73
2022/11/10 09:58:46;;;;;;;31.33;6.40;;;;;;;16.89;66.95;101365.19;4943978;28;120273;-74
2022/11/10 10:01:52;;;;;;;25.40;6.18;;;;;;;16.94;66.74;101374.84;4958482;28;120994;-74
2022/11/10 10:04:55;;;;;;;28.45;6.20;;;;;;;16.93;66.89;101374.06;4943881;28;120709;-73
2022/11/10 10:08:05;;;;;;;27.48;5.97;;;;;;;16.93;66.92;101371.31;4941710;28;119998;-73
2022/11/10 10:10:54;;;;;;;31.33;6.70;;;;;;;16.99;66.85;101372.16;4942329;28;120511;-74
2022/11/10 10:13:50;;;;;;;33.90;6.50;;;;;;;16.96;66.80;101370.34;4946568;28;119706;-74
2022/11/10 10:17:21;;;;;;;31.45;6.07;;;;;;;16.98;66.99;101370.63;4942879;28;120272;-73
2022/11/10 10:20:21;;;;;;;31.30;6.37;;;;;;;17.02;66.40;101373.19;4925363;28;120631;-74
2022/11/10 10:23:23;;;;;;;31.50;5.77;;;;;;;17.06;66.76;101374.56;4940503;28;120534;-73
2022/11/10 10:26:17;;;;;;;30.85;5.78;;;;;;;17.09;66.56;101379.16;4938798;28;120536;-73
2022/11/10 10:29:13;;;;;;;30.40;6.10;;;;;;;17.07;66.71;101383.66;4936887;28;119688;-73
2022/11/10 10:31:59;;;;;;;32.45;6.15;;;;;;;17.06;66.66;101377.34;4940912;28;120926;-73
2022/11/10 10:34:45;;;;;;;30.38;6.15;;;;;;;17.07;66.50;101381.63;4940057;28;120629;-73
2022/11/10 10:37:48;;;;;;;31.35;5.93;;;;;;;17.07;66.46;101376.09;4940346;28;119810;-73
2022/11/10 10:40:32;;;;;;;28.58;5.88;;;;;;;17.11;66.54;101375.91;4944829;28;120375;-73
2022/11/10 10:43:17;;;;;;;29.23;6.00;;;;;;;17.21;67.29;101376.53;4940106;28;121190;-73
2022/11/10 10:46:06;;;;;;;29.60;5.93;;;;;;;17.32;66.34;101373.97;4940552;28;120494;-74
2022/11/10 10:49:16;;;;;;;29.80;5.55;;;;;;;17.35;65.79;101373.00;4942320;28;120797;-73
2022/11/10 10:52:10;;;;;;;26.90;5.55;;;;;;;17.27;65.61;101377.38;4940265;28;120014;-73
2022/11/10 10:55:00;;;;;;;26.98;5.57;;;;;;;17.28;66.03;101365.09;4943451;28;120317;-73
2022/11/10 10:57:50;;;;;;;31.73;6.00;;;;;;;17.21;66.10;101371.75;4940707;28;121559;-73
2022/11/10 11:00:45;;;;;;;34.25;6.63;;;;;;;17.24;66.03;101372.81;4943073;28;119961;-73
2022/11/10 11:03:40;;;;;;;29.10;6.13;;;;;;;17.26;66.46;101382.16;4928626;28;120188;-74
2022/11/10 11:06:34;;;;;;;30.58;6.53;;;;;;;17.31;66.23;101378.75;4945019;28;120237;-74
2022/11/10 11:09:24;;;;;;;36.42;6.30;;;;;;;17.32;66.18;101385.81;4942011;28;119958;-73
2022/11/10 11:12:14;;;;;;;31.48;6.07;;;;;;;17.28;65.33;101390.03;4941571;28;120404;-73
2022/11/10 11:15:28;;;;;;;30.77;6.18;;;;;;;17.21;66.17;101393.19;4940273;28;120453;-73
2022/11/10 11:18:30;;;;;;;31.27;6.47;;;;;;;17.23;66.15;101385.16;4954322;28;120173;-73
2022/11/10 11:21:32;;;;;;;27.20;5.93;;;;;;;17.24;66.41;101386.66;4940091;28;120269;-73
2022/11/10 11:24:47;;;;;;;31.10;6.25;;;;;;;17.31;66.67;101389.06;4942220;28;119897;-73
2022/11/10 11:27:46;;;;;;;30.33;6.07;;;;;;;17.37;66.22;101398.25;4928999;28;121100;-73
2022/11/10 11:30:52;;;;;;;34.20;6.90;;;;;;;17.41;65.93;101398.81;4941632;28;120249;-73
2022/11/10 11:33:54;;;;;;;33.95;6.13;;;;;;;17.44;65.75;101400.63;4943366;28;120451;-73
2022/11/10 11:36:38;;;;;;;30.97;6.13;;;;;;;17.44;65.66;101389.50;4953044;28;120153;-74
2022/11/10 11:40:11;;;;;;;32.10;6.40;;;;;;;17.31;65.33;101386.31;4940679;28;119994;-73
2022/11/10 11:43:11;;;;;;;33.42;6.07;;;;;;;17.38;65.46;101397.75;4840385;28;119972;-74
2022/11/10 11:46:10;;;;;;;35.92;6.25;;;;;;;17.38;65.97;101394.97;4940148;28;119993;-73
2022/11/10 11:49:01;;;;;;;32.42;6.43;;;;;;;17.42;65.92;101406.63;4937746;28;121529;-73
2022/11/10 11:52:06;;;;;;;28.00;5.87;;;;;;;17.43;65.84;101399.09;4940698;28;120764;-74
2022/11/10 11:55:18;;;;;;;31.10;6.22;;;;;;;17.49;65.86;101388.84;4945005;28;119980;-73
2022/11/10 11:58:30;;;;;;;28.60;6.10;;;;;;;17.55;65.75;101394.50;4927083;28;120243;-74
2022/11/10 12:01:53;;;;;;;28.45;6.53;;;;;;;17.59;65.49;101404.13;4945537;28;120294;-73
2022/11/10 12:04:44;;;;;;;31.80;6.40;;;;;;;17.61;65.29;101404.41;4937672;28;120091;-75
2022/11/10 12:08:09;;;;;;;28.75;6.10;;;;;;;17.62;65.14;101405.19;4944005;28;119428;-73
2022/11/10 12:11:13;;;;;;;31.02;6.30;;;;;;;17.63;65.44;101415.78;4943346;28;121119;-73
2022/11/10 12:14:04;;;;;;;30.65;5.82;;;;;;;17.65;65.09;101416.06;4928977;28;120108;-74
2022/11/10 12:17:09;;;;;;;32.13;6.07;;;;;;;17.58;64.65;101426.81;4942748;28;120176;-74
2022/11/10 12:20:15;;;;;;;35.57;5.90;;;;;;;17.56;65.16;101437.63;4944941;28;120132;-74
2022/11/10 12:23:30;;;;;;;32.47;6.28;;;;;;;17.52;65.42;101435.03;4942038;28;120446;-74
2022/11/10 12:26:36;;;;;;;31.00;6.50;;;;;;;17.49;65.24;101444.31;4949854;28;119949;-74
2022/11/10 12:29:42;;;;;;;32.73;6.47;;;;;;;17.42;65.62;101437.16;4942470;28;120292;-74
2022/11/10 12:32:51;;;;;;;32.38;6.00;;;;;;;17.44;66.02;101436.66;4936730;28;119995;-73
2022/11/10 12:35:44;;;;;;;27.63;5.85;;;;;;;17.44;65.63;101434.66;4937236;28;120374;-73
2022/11/10 12:38:57;;;;;;;34.63;6.03;;;;;;;17.46;65.56;101431.41;4935863;28;119884;-74
2022/11/10 12:41:50;;;;;;;31.53;6.00;;;;;;;17.48;65.65;101449.09;4940362;28;119670;-74
2022/11/10 12:44:38;;;;;;;30.77;5.90;;;;;;;17.49;65.55;101439.53;4938822;28;120172;-74
2022/11/10 12:47:41;;;;;;;29.07;6.07;;;;;;;17.51;65.41;101447.38;4933252;28;120205;-74
2022/11/10 12:50:51;;;;;;;29.55;6.32;;;;;;;17.50;65.62;101451.38;4947639;28;119963;-73
2022/11/10 12:53:40;;;;;;;31.60;6.05;;;;;;;17.47;65.43;101453.09;4944060;28;119947;-73
2022/11/10 12:56:41;;;;;;;30.02;5.82;;;;;;;17.51;65.63;101452.94;4938082;28;120067;-73
2022/11/10 12:59:38;;;;;;;29.10;5.97;;;;;;;17.53;65.60;101455.22;4939675;28;120830;-74
2022/11/10 13:02:39;;;;;;;32.40;5.88;;;;;;;17.58;65.51;101441.44;4938403;28;119909;-73
2022/11/10 13:05:45;;;;;;;30.13;5.82;;;;;;;17.62;65.34;101444.78;4937341;28;119893;-73